sensor_id;sensor_type;location;lat;lon;timestamp;temperature;humidity
24011;DHT22;12217;50.792;4.372;2023-04-25T00:01:17;11.90;99.90
24011;DHT22;12217;50.792;4.372;2023-04-25T00:03:43;11.80;99.90
24011;DHT22;12217;50.792;4.372;2023-04-25T00:06:08;11.70;99.90
24011;DHT22;12217;50.792;4.372;2023-04-25T00:08:34;11.90;99.90
24011;DHT22;12217;50.792;4.372;2023-04-25T00:11:00;11.80;99.90
24011;DHT22;12217;50.792;4.372;2023-04-25T00:13:26;11.80;99.90
24011;DHT22;12217;50.792;4.372;2023-04-25T00:15:52;11.70;99.90
24011;DHT22;12217;50.792;4.372;2023-04-25T00:18:19;11.70;99.90
24011;DHT22;12217;50.792;4.372;2023-04-25T00:20:45;11.70;99.90
24011;DHT22;12217;50.792;4.372;2023-04-25T00:23:15;11.70;99.90
24011;DHT22;12217;50.792;4.372;2023-04-25T00:25:43;11.70;99.90
24011;DHT22;12217;50.792;4.372;2023-04-25T00:28:10;11.80;99.90
24011;DHT22;12217;50.792;4.372;2023-04-25T00:30:36;11.80;99.90
24011;DHT22;12217;50.792;4.372;2023-04-25T00:33:01;11.80;99.90
24011;DHT22;12217;50.792;4.372;2023-04-25T00:35:30;11.80;99.90
24011;DHT22;12217;50.792;4.372;2023-04-25T00:37:56;11.80;99.90
24011;DHT22;12217;50.792;4.372;2023-04-25T00:40:22;11.70;99.90
24011;DHT22;12217;50.792;4.372;2023-04-25T00:42:47;11.70;99.90
24011;DHT22;12217;50.792;4.372;2023-04-25T00:45:14;11.70;99.90
24011;DHT22;12217;50.792;4.372;2023-04-25T00:47:42;11.70;99.90
24011;DHT22;12217;50.792;4.372;2023-04-25T00:50:08;11.80;99.90
24011;DHT22;12217;50.792;4.372;2023-04-25T00:52:35;11.70;99.90
24011;DHT22;12217;50.792;4.372;2023-04-25T00:55:01;11.60;99.90
24011;DHT22;12217;50.792;4.372;2023-04-25T00:57:27;11.60;99.90
24011;DHT22;12217;50.792;4.372;2023-04-25T00:59:54;11.60;99.90
24011;DHT22;12217;50.792;4.372;2023-04-25T01:02:20;11.60;99.90
24011;DHT22;12217;50.792;4.372;2023-04-25T01:04:48;11.60;99.90
24011;DHT22;12217;50.792;4.372;2023-04-25T01:07:14;11.50;99.90
24011;DHT22;12217;50.792;4.372;2023-04-25T01:09:41;11.40;99.90
24011;DHT22;12217;50.792;4.372;2023-04-25T01:12:06;11.40;99.90
24011;DHT22;12217;50.792;4.372;2023-04-25T01:14:32;11.40;99.90
24011;DHT22;12217;50.792;4.372;2023-04-25T01:16:59;11.50;99.90
24011;DHT22;12217;50.792;4.372;2023-04-25T01:19:25;11.40;99.90
24011;DHT22;12217;50.792;4.372;2023-04-25T01:21:51;11.50;99.90
24011;DHT22;12217;50.792;4.372;2023-04-25T01:24:17;11.50;99.90
24011;DHT22;12217;50.792;4.372;2023-04-25T01:26:43;11.50;99.90
24011;DHT22;12217;50.792;4.372;2023-04-25T01:29:18;11.50;99.90
24011;DHT22;12217;50.792;4.372;2023-04-25T01:31:44;11.40;99.90
24011;DHT22;12217;50.792;4.372;2023-04-25T01:34:12;11.30;99.90
24011;DHT22;12217;50.792;4.372;2023-04-25T01:36:38;11.40;99.90
24011;DHT22;12217;50.792;4.372;2023-04-25T01:39:03;11.40;99.90
24011;DHT22;12217;50.792;4.372;2023-04-25T01:41:29;11.40;99.90
24011;DHT22;12217;50.792;4.372;2023-04-25T01:43:55;11.40;99.90
24011;DHT22;12217;50.792;4.372;2023-04-25T01:46:21;11.50;99.90
24011;DHT22;12217;50.792;4.372;2023-04-25T01:48:47;11.50;99.90
24011;DHT22;12217;50.792;4.372;2023-04-25T01:51:12;11.40;99.90
24011;DHT22;12217;50.792;4.372;2023-04-25T01:53:39;11.30;99.90
24011;DHT22;12217;50.792;4.372;2023-04-25T01:56:05;11.30;99.90
24011;DHT22;12217;50.792;4.372;2023-04-25T01:58:31;11.20;99.90
24011;DHT22;12217;50.792;4.372;2023-04-25T02:00:56;11.10;99.90
24011;DHT22;12217;50.792;4.372;2023-04-25T02:03:22;11.00;99.90
24011;DHT22;12217;50.792;4.372;2023-04-25T02:05:48;11.00;99.90
24011;DHT22;12217;50.792;4.372;2023-04-25T02:08:14;10.90;99.90
24011;DHT22;12217;50.792;4.372;2023-04-25T02:10:39;10.90;99.90
24011;DHT22;12217;50.792;4.372;2023-04-25T02:13:05;10.90;99.90
24011;DHT22;12217;50.792;4.372;2023-04-25T02:15:31;10.90;99.90
24011;DHT22;12217;50.792;4.372;2023-04-25T02:17:57;10.80;99.90
24011;DHT22;12217;50.792;4.372;2023-04-25T02:20:24;10.90;99.90
24011;DHT22;12217;50.792;4.372;2023-04-25T02:22:50;10.90;99.90
24011;DHT22;12217;50.792;4.372;2023-04-25T02:25:18;11.00;99.90
24011;DHT22;12217;50.792;4.372;2023-04-25T02:27:45;10.60;99.90
24011;DHT22;12217;50.792;4.372;2023-04-25T02:30:11;10.50;99.90
24011;DHT22;12217;50.792;4.372;2023-04-25T02:32:38;10.50;99.90
24011;DHT22;12217;50.792;4.372;2023-04-25T02:35:04;10.60;99.90
24011;DHT22;12217;50.792;4.372;2023-04-25T02:37:30;10.60;99.90
24011;DHT22;12217;50.792;4.372;2023-04-25T02:39:56;10.60;99.90
24011;DHT22;12217;50.792;4.372;2023-04-25T02:42:22;10.60;99.90
24011;DHT22;12217;50.792;4.372;2023-04-25T02:44:48;10.70;99.90
24011;DHT22;12217;50.792;4.372;2023-04-25T02:47:13;10.80;99.90
24011;DHT22;12217;50.792;4.372;2023-04-25T02:49:39;10.90;99.90
24011;DHT22;12217;50.792;4.372;2023-04-25T02:52:05;10.90;99.90
24011;DHT22;12217;50.792;4.372;2023-04-25T02:54:31;11.00;99.90
24011;DHT22;12217;50.792;4.372;2023-04-25T02:56:57;11.10;99.90
24011;DHT22;12217;50.792;4.372;2023-04-25T02:59:23;11.00;99.90
24011;DHT22;12217;50.792;4.372;2023-04-25T03:01:48;11.10;99.90
24011;DHT22;12217;50.792;4.372;2023-04-25T03:04:14;11.10;99.90
24011;DHT22;12217;50.792;4.372;2023-04-25T03:06:40;11.10;99.90
24011;DHT22;12217;50.792;4.372;2023-04-25T03:09:06;11.20;99.90
24011;DHT22;12217;50.792;4.372;2023-04-25T03:11:31;11.40;99.90
24011;DHT22;12217;50.792;4.372;2023-04-25T03:13:57;11.20;99.90
24011;DHT22;12217;50.792;4.372;2023-04-25T03:16:23;11.00;99.90
24011;DHT22;12217;50.792;4.372;2023-04-25T03:18:48;10.90;99.90
24011;DHT22;12217;50.792;4.372;2023-04-25T03:21:15;10.90;99.90
24011;DHT22;12217;50.792;4.372;2023-04-25T03:23:41;10.80;99.90
24011;DHT22;12217;50.792;4.372;2023-04-25T03:26:07;10.80;99.90
24011;DHT22;12217;50.792;4.372;2023-04-25T03:28:32;10.70;99.90
24011;DHT22;12217;50.792;4.372;2023-04-25T03:30:58;10.70;99.90
24011;DHT22;12217;50.792;4.372;2023-04-25T03:33:24;10.80;99.90
24011;DHT22;12217;50.792;4.372;2023-04-25T03:35:49;10.80;99.90
24011;DHT22;12217;50.792;4.372;2023-04-25T03:38:15;10.70;99.90
24011;DHT22;12217;50.792;4.372;2023-04-25T03:40:41;10.60;99.90
24011;DHT22;12217;50.792;4.372;2023-04-25T03:43:07;10.50;99.90
24011;DHT22;12217;50.792;4.372;2023-04-25T03:45:32;10.60;99.90
24011;DHT22;12217;50.792;4.372;2023-04-25T03:47:58;10.60;99.90
24011;DHT22;12217;50.792;4.372;2023-04-25T03:50:24;10.60;99.90
24011;DHT22;12217;50.792;4.372;2023-04-25T03:52:49;10.60;99.90
24011;DHT22;12217;50.792;4.372;2023-04-25T03:55:15;10.40;99.90
24011;DHT22;12217;50.792;4.372;2023-04-25T03:57:41;10.40;99.90
24011;DHT22;12217;50.792;4.372;2023-04-25T04:00:07;10.40;99.90
24011;DHT22;12217;50.792;4.372;2023-04-25T04:02:33;10.50;99.90
24011;DHT22;12217;50.792;4.372;2023-04-25T04:05:00;10.50;99.90
24011;DHT22;12217;50.792;4.372;2023-04-25T04:07:26;10.40;99.90
24011;DHT22;12217;50.792;4.372;2023-04-25T04:09:51;10.40;99.90
24011;DHT22;12217;50.792;4.372;2023-04-25T04:12:17;10.50;99.90
24011;DHT22;12217;50.792;4.372;2023-04-25T04:14:43;10.60;99.90
24011;DHT22;12217;50.792;4.372;2023-04-25T04:17:08;10.50;99.90
24011;DHT22;12217;50.792;4.372;2023-04-25T04:19:34;10.50;99.90
24011;DHT22;12217;50.792;4.372;2023-04-25T04:21:59;10.60;99.90
24011;DHT22;12217;50.792;4.372;2023-04-25T04:24:25;10.60;99.90
24011;DHT22;12217;50.792;4.372;2023-04-25T04:26:51;10.60;99.90
24011;DHT22;12217;50.792;4.372;2023-04-25T04:29:17;10.50;99.90
24011;DHT22;12217;50.792;4.372;2023-04-25T04:31:50;10.50;99.90
24011;DHT22;12217;50.792;4.372;2023-04-25T04:34:19;10.40;99.90
24011;DHT22;12217;50.792;4.372;2023-04-25T04:36:45;10.40;99.90
24011;DHT22;12217;50.792;4.372;2023-04-25T04:39:14;10.40;99.90
24011;DHT22;12217;50.792;4.372;2023-04-25T04:41:40;10.60;99.90
24011;DHT22;12217;50.792;4.372;2023-04-25T04:44:06;10.60;99.90
24011;DHT22;12217;50.792;4.372;2023-04-25T04:46:35;10.70;99.90
24011;DHT22;12217;50.792;4.372;2023-04-25T04:49:09;10.80;99.90
24011;DHT22;12217;50.792;4.372;2023-04-25T04:51:34;10.80;99.90
24011;DHT22;12217;50.792;4.372;2023-04-25T04:54:00;10.70;99.90
24011;DHT22;12217;50.792;4.372;2023-04-25T04:56:28;10.70;99.90
24011;DHT22;12217;50.792;4.372;2023-04-25T04:58:56;10.70;99.90
24011;DHT22;12217;50.792;4.372;2023-04-25T05:01:22;10.50;99.90
24011;DHT22;12217;50.792;4.372;2023-04-25T05:03:48;10.40;99.90
24011;DHT22;12217;50.792;4.372;2023-04-25T05:06:13;10.30;99.90
24011;DHT22;12217;50.792;4.372;2023-04-25T05:08:39;10.20;99.90
24011;DHT22;12217;50.792;4.372;2023-04-25T05:11:05;10.20;99.90
24011;DHT22;12217;50.792;4.372;2023-04-25T05:13:30;9.90;99.90
24011;DHT22;12217;50.792;4.372;2023-04-25T05:15:56;9.90;99.90
24011;DHT22;12217;50.792;4.372;2023-04-25T05:18:22;10.00;99.90
24011;DHT22;12217;50.792;4.372;2023-04-25T05:20:47;9.90;99.90
24011;DHT22;12217;50.792;4.372;2023-04-25T05:23:13;9.70;99.90
24011;DHT22;12217;50.792;4.372;2023-04-25T05:25:38;9.60;99.90
24011;DHT22;12217;50.792;4.372;2023-04-25T05:28:04;9.80;99.90
24011;DHT22;12217;50.792;4.372;2023-04-25T05:30:31;9.90;99.90
24011;DHT22;12217;50.792;4.372;2023-04-25T05:32:56;9.90;99.90
24011;DHT22;12217;50.792;4.372;2023-04-25T05:35:22;10.00;99.90
24011;DHT22;12217;50.792;4.372;2023-04-25T05:37:48;10.00;99.90
24011;DHT22;12217;50.792;4.372;2023-04-25T05:40:13;10.20;99.90
24011;DHT22;12217;50.792;4.372;2023-04-25T05:42:39;10.20;99.90
24011;DHT22;12217;50.792;4.372;2023-04-25T05:45:05;10.20;99.90
24011;DHT22;12217;50.792;4.372;2023-04-25T05:47:31;10.20;99.90
24011;DHT22;12217;50.792;4.372;2023-04-25T05:49:57;10.10;99.90
24011;DHT22;12217;50.792;4.372;2023-04-25T05:52:22;10.00;99.90
24011;DHT22;12217;50.792;4.372;2023-04-25T05:54:48;10.00;99.90
24011;DHT22;12217;50.792;4.372;2023-04-25T05:57:40;10.20;99.90
24011;DHT22;12217;50.792;4.372;2023-04-25T06:00:09;10.30;99.90
24011;DHT22;12217;50.792;4.372;2023-04-25T06:02:35;10.30;99.90
24011;DHT22;12217;50.792;4.372;2023-04-25T06:05:01;10.40;99.90
24011;DHT22;12217;50.792;4.372;2023-04-25T06:07:29;10.40;99.90
24011;DHT22;12217;50.792;4.372;2023-04-25T06:10:00;10.40;99.90
24011;DHT22;12217;50.792;4.372;2023-04-25T06:12:26;10.50;99.90
24011;DHT22;12217;50.792;4.372;2023-04-25T06:14:52;10.50;99.90
24011;DHT22;12217;50.792;4.372;2023-04-25T06:17:18;10.60;99.90
24011;DHT22;12217;50.792;4.372;2023-04-25T06:19:43;10.60;99.90
24011;DHT22;12217;50.792;4.372;2023-04-25T06:22:10;10.60;99.90
24011;DHT22;12217;50.792;4.372;2023-04-25T06:24:35;10.70;99.90
24011;DHT22;12217;50.792;4.372;2023-04-25T06:27:01;10.80;99.90
24011;DHT22;12217;50.792;4.372;2023-04-25T06:29:27;10.60;99.90
24011;DHT22;12217;50.792;4.372;2023-04-25T06:31:52;10.60;99.90
24011;DHT22;12217;50.792;4.372;2023-04-25T06:34:18;10.60;99.90
24011;DHT22;12217;50.792;4.372;2023-04-25T06:36:47;10.80;99.90
24011;DHT22;12217;50.792;4.372;2023-04-25T06:39:15;10.80;99.90
24011;DHT22;12217;50.792;4.372;2023-04-25T06:41:41;10.80;99.90
24011;DHT22;12217;50.792;4.372;2023-04-25T06:44:07;10.90;99.90
24011;DHT22;12217;50.792;4.372;2023-04-25T06:46:32;10.90;99.90
24011;DHT22;12217;50.792;4.372;2023-04-25T06:48:58;10.90;99.90
24011;DHT22;12217;50.792;4.372;2023-04-25T06:51:24;10.90;99.90
24011;DHT22;12217;50.792;4.372;2023-04-25T06:53:50;10.90;99.90
24011;DHT22;12217;50.792;4.372;2023-04-25T06:56:16;10.90;99.90
24011;DHT22;12217;50.792;4.372;2023-04-25T06:58:41;11.00;99.90
24011;DHT22;12217;50.792;4.372;2023-04-25T07:01:07;11.00;99.90
24011;DHT22;12217;50.792;4.372;2023-04-25T07:03:32;10.80;99.90
24011;DHT22;12217;50.792;4.372;2023-04-25T07:05:58;10.80;99.90
24011;DHT22;12217;50.792;4.372;2023-04-25T07:08:24;10.90;99.90
24011;DHT22;12217;50.792;4.372;2023-04-25T07:10:49;10.90;99.90
24011;DHT22;12217;50.792;4.372;2023-04-25T07:13:15;11.00;99.90
24011;DHT22;12217;50.792;4.372;2023-04-25T07:15:41;11.10;99.90
24011;DHT22;12217;50.792;4.372;2023-04-25T07:18:07;11.10;99.90
24011;DHT22;12217;50.792;4.372;2023-04-25T07:20:33;11.20;99.90
24011;DHT22;12217;50.792;4.372;2023-04-25T07:22:58;11.20;99.90
24011;DHT22;12217;50.792;4.372;2023-04-25T07:25:24;11.20;99.90
24011;DHT22;12217;50.792;4.372;2023-04-25T07:27:50;10.90;99.90
24011;DHT22;12217;50.792;4.372;2023-04-25T07:30:15;10.90;99.90
24011;DHT22;12217;50.792;4.372;2023-04-25T07:32:41;10.80;99.90
24011;DHT22;12217;50.792;4.372;2023-04-25T07:35:07;10.90;99.90
24011;DHT22;12217;50.792;4.372;2023-04-25T07:37:34;10.70;99.90
24011;DHT22;12217;50.792;4.372;2023-04-25T07:39:59;10.80;99.90
24011;DHT22;12217;50.792;4.372;2023-04-25T07:42:25;11.10;99.90
24011;DHT22;12217;50.792;4.372;2023-04-25T07:44:51;10.90;99.90
24011;DHT22;12217;50.792;4.372;2023-04-25T07:47:17;10.80;99.90
24011;DHT22;12217;50.792;4.372;2023-04-25T07:49:44;11.00;99.90
24011;DHT22;12217;50.792;4.372;2023-04-25T07:52:11;11.20;99.90
24011;DHT22;12217;50.792;4.372;2023-04-25T07:54:37;11.30;99.90
24011;DHT22;12217;50.792;4.372;2023-04-25T07:57:02;11.10;99.90
24011;DHT22;12217;50.792;4.372;2023-04-25T07:59:28;11.30;99.90
24011;DHT22;12217;50.792;4.372;2023-04-25T08:01:54;11.20;99.90
24011;DHT22;12217;50.792;4.372;2023-04-25T08:04:20;11.20;99.90
24011;DHT22;12217;50.792;4.372;2023-04-25T08:06:46;11.40;99.90
24011;DHT22;12217;50.792;4.372;2023-04-25T08:09:11;11.40;99.90
24011;DHT22;12217;50.792;4.372;2023-04-25T08:11:37;11.50;99.90
24011;DHT22;12217;50.792;4.372;2023-04-25T08:14:03;11.70;99.90
24011;DHT22;12217;50.792;4.372;2023-04-25T08:16:28;11.60;99.90
24011;DHT22;12217;50.792;4.372;2023-04-25T08:18:54;11.60;99.90
24011;DHT22;12217;50.792;4.372;2023-04-25T08:21:20;11.50;99.90
24011;DHT22;12217;50.792;4.372;2023-04-25T08:23:46;11.50;99.90
24011;DHT22;12217;50.792;4.372;2023-04-25T08:26:12;11.50;99.90
24011;DHT22;12217;50.792;4.372;2023-04-25T08:28:37;11.60;99.90
24011;DHT22;12217;50.792;4.372;2023-04-25T08:31:03;11.70;99.90
24011;DHT22;12217;50.792;4.372;2023-04-25T08:33:29;11.70;99.90
24011;DHT22;12217;50.792;4.372;2023-04-25T08:35:55;11.80;99.90
24011;DHT22;12217;50.792;4.372;2023-04-25T08:38:21;12.10;99.90
24011;DHT22;12217;50.792;4.372;2023-04-25T08:40:50;12.30;99.90
24011;DHT22;12217;50.792;4.372;2023-04-25T08:43:18;12.20;99.90
24011;DHT22;12217;50.792;4.372;2023-04-25T08:45:44;12.10;99.90
24011;DHT22;12217;50.792;4.372;2023-04-25T08:48:13;12.00;99.90
24011;DHT22;12217;50.792;4.372;2023-04-25T08:50:55;11.70;99.90
24011;DHT22;12217;50.792;4.372;2023-04-25T08:53:25;11.80;99.90
24011;DHT22;12217;50.792;4.372;2023-04-25T08:55:53;11.80;99.90
24011;DHT22;12217;50.792;4.372;2023-04-25T08:58:19;11.80;99.90
24011;DHT22;12217;50.792;4.372;2023-04-25T09:00:47;11.80;99.90
24011;DHT22;12217;50.792;4.372;2023-04-25T09:03:13;11.90;99.90
24011;DHT22;12217;50.792;4.372;2023-04-25T09:05:40;12.20;99.90
24011;DHT22;12217;50.792;4.372;2023-04-25T09:08:06;12.50;99.90
24011;DHT22;12217;50.792;4.372;2023-04-25T09:10:32;12.70;99.90
24011;DHT22;12217;50.792;4.372;2023-04-25T09:13:24;13.00;99.90
24011;DHT22;12217;50.792;4.372;2023-04-25T09:15:52;13.30;99.90
24011;DHT22;12217;50.792;4.372;2023-04-25T09:18:32;13.50;99.90
24011;DHT22;12217;50.792;4.372;2023-04-25T09:21:09;13.60;99.90
24011;DHT22;12217;50.792;4.372;2023-04-25T09:23:46;13.70;99.90
24011;DHT22;12217;50.792;4.372;2023-04-25T09:26:16;13.40;99.90
24011;DHT22;12217;50.792;4.372;2023-04-25T09:28:42;13.30;99.90
24011;DHT22;12217;50.792;4.372;2023-04-25T09:31:10;13.20;99.90
24011;DHT22;12217;50.792;4.372;2023-04-25T09:33:36;13.40;99.90
24011;DHT22;12217;50.792;4.372;2023-04-25T09:36:06;13.40;99.90
24011;DHT22;12217;50.792;4.372;2023-04-25T09:38:40;13.40;99.90
24011;DHT22;12217;50.792;4.372;2023-04-25T09:41:07;13.00;99.90
24011;DHT22;12217;50.792;4.372;2023-04-25T09:43:33;13.00;99.90
24011;DHT22;12217;50.792;4.372;2023-04-25T09:45:59;13.00;99.90
24011;DHT22;12217;50.792;4.372;2023-04-25T09:48:27;12.60;99.90
24011;DHT22;12217;50.792;4.372;2023-04-25T09:53:34;12.10;99.90
24011;DHT22;12217;50.792;4.372;2023-04-25T09:56:04;12.20;99.90
24011;DHT22;12217;50.792;4.372;2023-04-25T09:58:31;12.20;99.90
24011;DHT22;12217;50.792;4.372;2023-04-25T10:01:00;12.30;99.90
24011;DHT22;12217;50.792;4.372;2023-04-25T10:03:30;12.70;99.90
24011;DHT22;12217;50.792;4.372;2023-04-25T10:05:59;12.90;99.90
24011;DHT22;12217;50.792;4.372;2023-04-25T10:08:31;13.20;99.90
24011;DHT22;12217;50.792;4.372;2023-04-25T10:11:03;13.20;99.90
24011;DHT22;12217;50.792;4.372;2023-04-25T10:13:30;13.30;99.90
24011;DHT22;12217;50.792;4.372;2023-04-25T10:16:03;13.50;99.90
24011;DHT22;12217;50.792;4.372;2023-04-25T10:18:30;13.60;99.90
24011;DHT22;12217;50.792;4.372;2023-04-25T10:21:00;13.70;99.90
24011;DHT22;12217;50.792;4.372;2023-04-25T10:23:27;13.80;99.90
24011;DHT22;12217;50.792;4.372;2023-04-25T10:25:54;14.10;99.90
24011;DHT22;12217;50.792;4.372;2023-04-25T10:28:20;14.30;99.90
24011;DHT22;12217;50.792;4.372;2023-04-25T10:31:02;14.40;99.90
24011;DHT22;12217;50.792;4.372;2023-04-25T10:33:39;14.40;99.90
24011;DHT22;12217;50.792;4.372;2023-04-25T10:36:14;14.50;99.90
24011;DHT22;12217;50.792;4.372;2023-04-25T10:38:42;14.60;99.90
24011;DHT22;12217;50.792;4.372;2023-04-25T10:41:09;14.70;99.90
24011;DHT22;12217;50.792;4.372;2023-04-25T10:43:46;14.50;99.90
24011;DHT22;12217;50.792;4.372;2023-04-25T10:46:26;14.40;99.90
24011;DHT22;12217;50.792;4.372;2023-04-25T10:49:00;14.50;99.90
24011;DHT22;12217;50.792;4.372;2023-04-25T10:51:30;14.60;99.90
24011;DHT22;12217;50.792;4.372;2023-04-25T10:54:05;14.80;99.90
24011;DHT22;12217;50.792;4.372;2023-04-25T10:56:32;14.90;99.30
24011;DHT22;12217;50.792;4.372;2023-04-25T11:01:37;15.00;98.40
24011;DHT22;12217;50.792;4.372;2023-04-25T11:04:03;14.60;96.30
24011;DHT22;12217;50.792;4.372;2023-04-25T11:06:53;14.40;99.50
24011;DHT22;12217;50.792;4.372;2023-04-25T11:09:23;14.30;99.90
24011;DHT22;12217;50.792;4.372;2023-04-25T11:11:57;14.10;99.90
24011;DHT22;12217;50.792;4.372;2023-04-25T11:14:23;13.20;99.90
24011;DHT22;12217;50.792;4.372;2023-04-25T11:16:59;12.80;99.90
24011;DHT22;12217;50.792;4.372;2023-04-25T11:19:25;12.60;99.90
24011;DHT22;12217;50.792;4.372;2023-04-25T11:21:57;12.40;99.90
24011;DHT22;12217;50.792;4.372;2023-04-25T11:24:30;12.30;99.90
24011;DHT22;12217;50.792;4.372;2023-04-25T11:26:58;12.10;99.90
24011;DHT22;12217;50.792;4.372;2023-04-25T11:29:28;12.00;99.90
24011;DHT22;12217;50.792;4.372;2023-04-25T11:31:55;11.90;99.90
24011;DHT22;12217;50.792;4.372;2023-04-25T11:34:24;11.90;99.90
24011;DHT22;12217;50.792;4.372;2023-04-25T11:36:51;12.00;99.90
24011;DHT22;12217;50.792;4.372;2023-04-25T11:39:20;12.00;99.90
24011;DHT22;12217;50.792;4.372;2023-04-25T11:41:46;12.10;99.90
24011;DHT22;12217;50.792;4.372;2023-04-25T11:44:15;12.30;99.90
24011;DHT22;12217;50.792;4.372;2023-04-25T11:46:42;12.70;99.90
24011;DHT22;12217;50.792;4.372;2023-04-25T11:49:08;13.00;99.90
24011;DHT22;12217;50.792;4.372;2023-04-25T11:51:41;13.40;99.90
24011;DHT22;12217;50.792;4.372;2023-04-25T11:54:07;13.70;99.90
24011;DHT22;12217;50.792;4.372;2023-04-25T11:56:33;13.90;99.90
24011;DHT22;12217;50.792;4.372;2023-04-25T11:59:03;14.00;99.90
24011;DHT22;12217;50.792;4.372;2023-04-25T12:01:31;13.90;99.90
24011;DHT22;12217;50.792;4.372;2023-04-25T12:03:58;13.90;99.90
24011;DHT22;12217;50.792;4.372;2023-04-25T12:06:28;13.70;99.90
24011;DHT22;12217;50.792;4.372;2023-04-25T12:09:04;13.50;99.90
24011;DHT22;12217;50.792;4.372;2023-04-25T12:11:44;13.40;99.90
24011;DHT22;12217;50.792;4.372;2023-04-25T12:14:11;13.60;99.90
24011;DHT22;12217;50.792;4.372;2023-04-25T12:16:44;14.00;99.90
24011;DHT22;12217;50.792;4.372;2023-04-25T12:19:14;14.50;99.90
24011;DHT22;12217;50.792;4.372;2023-04-25T12:21:41;15.00;99.90
24011;DHT22;12217;50.792;4.372;2023-04-25T12:24:15;15.20;99.90
24011;DHT22;12217;50.792;4.372;2023-04-25T12:27:01;15.50;99.90
24011;DHT22;12217;50.792;4.372;2023-04-25T12:29:28;15.60;99.90
24011;DHT22;12217;50.792;4.372;2023-04-25T12:31:55;15.80;99.10
24011;DHT22;12217;50.792;4.372;2023-04-25T12:34:22;15.70;99.90
24011;DHT22;12217;50.792;4.372;2023-04-25T12:36:49;15.50;99.80
24011;DHT22;12217;50.792;4.372;2023-04-25T12:39:24;15.30;99.90
24011;DHT22;12217;50.792;4.372;2023-04-25T12:41:53;15.50;99.90
24011;DHT22;12217;50.792;4.372;2023-04-25T12:44:22;15.40;99.90
24011;DHT22;12217;50.792;4.372;2023-04-25T12:46:48;15.30;99.90
24011;DHT22;12217;50.792;4.372;2023-04-25T12:49:14;15.20;99.90
24011;DHT22;12217;50.792;4.372;2023-04-25T12:51:40;14.90;99.90
24011;DHT22;12217;50.792;4.372;2023-04-25T12:54:09;14.70;99.90
24011;DHT22;12217;50.792;4.372;2023-04-25T12:59:22;14.40;99.90
24011;DHT22;12217;50.792;4.372;2023-04-25T13:01:48;14.70;99.90
24011;DHT22;12217;50.792;4.372;2023-04-25T13:04:14;15.20;99.90
24011;DHT22;12217;50.792;4.372;2023-04-25T13:06:41;15.60;99.90
24011;DHT22;12217;50.792;4.372;2023-04-25T13:09:06;15.90;99.90
24011;DHT22;12217;50.792;4.372;2023-04-25T13:11:32;16.00;98.30
24011;DHT22;12217;50.792;4.372;2023-04-25T13:13:57;16.20;99.00
24011;DHT22;12217;50.792;4.372;2023-04-25T13:16:23;16.20;96.10
24011;DHT22;12217;50.792;4.372;2023-04-25T13:18:49;15.90;95.40
24011;DHT22;12217;50.792;4.372;2023-04-25T13:21:14;15.80;96.50
24011;DHT22;12217;50.792;4.372;2023-04-25T13:23:40;15.40;98.60
24011;DHT22;12217;50.792;4.372;2023-04-25T13:26:08;15.20;99.20
24011;DHT22;12217;50.792;4.372;2023-04-25T13:28:34;15.20;99.70
24011;DHT22;12217;50.792;4.372;2023-04-25T13:30:59;15.40;99.50
24011;DHT22;12217;50.792;4.372;2023-04-25T13:33:25;15.30;98.70
24011;DHT22;12217;50.792;4.372;2023-04-25T13:35:51;15.50;98.10
24011;DHT22;12217;50.792;4.372;2023-04-25T13:38:22;15.50;97.80
24011;DHT22;12217;50.792;4.372;2023-04-25T13:40:48;15.50;96.90
24011;DHT22;12217;50.792;4.372;2023-04-25T13:43:14;15.50;97.90
24011;DHT22;12217;50.792;4.372;2023-04-25T13:45:40;15.50;96.70
24011;DHT22;12217;50.792;4.372;2023-04-25T13:48:06;15.40;95.90
24011;DHT22;12217;50.792;4.372;2023-04-25T13:50:32;15.20;95.30
24011;DHT22;12217;50.792;4.372;2023-04-25T13:52:57;15.50;96.30
24011;DHT22;12217;50.792;4.372;2023-04-25T13:55:23;15.80;95.40
24011;DHT22;12217;50.792;4.372;2023-04-25T13:57:48;16.30;96.50
24011;DHT22;12217;50.792;4.372;2023-04-25T14:00:14;16.50;91.90
24011;DHT22;12217;50.792;4.372;2023-04-25T14:02:40;16.80;95.10
24011;DHT22;12217;50.792;4.372;2023-04-25T14:05:06;17.20;95.70
24011;DHT22;12217;50.792;4.372;2023-04-25T14:07:33;17.40;93.30
24011;DHT22;12217;50.792;4.372;2023-04-25T14:10:00;17.60;91.80
24011;DHT22;12217;50.792;4.372;2023-04-25T14:12:26;17.50;92.40
24011;DHT22;12217;50.792;4.372;2023-04-25T14:14:52;17.20;92.80
24011;DHT22;12217;50.792;4.372;2023-04-25T14:17:19;17.00;95.10
24011;DHT22;12217;50.792;4.372;2023-04-25T14:19:44;16.90;93.90
24011;DHT22;12217;50.792;4.372;2023-04-25T14:22:14;16.80;95.20
24011;DHT22;12217;50.792;4.372;2023-04-25T14:24:40;16.90;93.90
24011;DHT22;12217;50.792;4.372;2023-04-25T14:27:06;16.90;94.80
24011;DHT22;12217;50.792;4.372;2023-04-25T14:29:32;17.00;94.50
24011;DHT22;12217;50.792;4.372;2023-04-25T14:31:57;17.10;94.70
24011;DHT22;12217;50.792;4.372;2023-04-25T14:34:24;16.90;91.20
24011;DHT22;12217;50.792;4.372;2023-04-25T14:36:51;17.00;93.00
24011;DHT22;12217;50.792;4.372;2023-04-25T14:39:17;17.00;90.00
24011;DHT22;12217;50.792;4.372;2023-04-25T14:41:43;16.70;86.90
24011;DHT22;12217;50.792;4.372;2023-04-25T14:44:08;16.90;90.20
24011;DHT22;12217;50.792;4.372;2023-04-25T14:46:34;16.80;90.40
24011;DHT22;12217;50.792;4.372;2023-04-25T14:49:00;16.60;90.80
24011;DHT22;12217;50.792;4.372;2023-04-25T14:51:26;16.50;90.60
24011;DHT22;12217;50.792;4.372;2023-04-25T14:53:52;16.70;90.30
24011;DHT22;12217;50.792;4.372;2023-04-25T14:56:18;16.50;89.40
24011;DHT22;12217;50.792;4.372;2023-04-25T14:58:44;16.40;88.00
24011;DHT22;12217;50.792;4.372;2023-04-25T15:01:11;16.40;87.10
24011;DHT22;12217;50.792;4.372;2023-04-25T15:03:38;16.30;88.40
24011;DHT22;12217;50.792;4.372;2023-04-25T15:06:05;16.20;87.90
24011;DHT22;12217;50.792;4.372;2023-04-25T15:08:31;16.30;87.80
24011;DHT22;12217;50.792;4.372;2023-04-25T15:10:58;16.30;91.20
24011;DHT22;12217;50.792;4.372;2023-04-25T15:13:24;16.20;91.40
24011;DHT22;12217;50.792;4.372;2023-04-25T15:15:50;16.10;91.80
24011;DHT22;12217;50.792;4.372;2023-04-25T15:18:17;15.80;90.20
24011;DHT22;12217;50.792;4.372;2023-04-25T15:20:43;15.70;92.30
24011;DHT22;12217;50.792;4.372;2023-04-25T15:23:09;15.50;92.00
24011;DHT22;12217;50.792;4.372;2023-04-25T15:25:34;15.50;92.00
24011;DHT22;12217;50.792;4.372;2023-04-25T15:28:00;15.60;92.00
24011;DHT22;12217;50.792;4.372;2023-04-25T15:30:26;15.90;90.80
24011;DHT22;12217;50.792;4.372;2023-04-25T15:32:51;15.70;90.70
24011;DHT22;12217;50.792;4.372;2023-04-25T15:35:17;15.70;91.10
24011;DHT22;12217;50.792;4.372;2023-04-25T15:37:43;15.80;90.20